createdAt,value
2022-08-05T00:01:27.987Z,22.20
2022-08-05T00:03:56.789Z,22.20
2022-08-05T00:06:32.470Z,22.20
2022-08-05T00:09:00.711Z,22.20
2022-08-05T00:11:34.445Z,22.20
2022-08-05T00:14:12.981Z,22.10
2022-08-05T00:16:52.347Z,22.10
2022-08-05T00:19:22.211Z,22.10
2022-08-05T00:21:49.629Z,21.90
2022-08-05T00:24:19.254Z,22.00
2022-08-05T00:26:52.973Z,22.10
2022-08-05T00:29:22.646Z,21.80
2022-08-05T00:32:10.483Z,21.60
2022-08-05T00:35:05.263Z,21.50
2022-08-05T00:37:51.414Z,21.00
2022-08-05T00:40:27.345Z,20.60
2022-08-05T00:42:59.784Z,20.20
2022-08-05T00:45:38.066Z,20.00
2022-08-05T00:48:07.575Z,19.80
2022-08-05T00:50:35.014Z,19.70
2022-08-05T00:53:02.819Z,19.70
2022-08-05T00:55:42.601Z,19.60
2022-08-05T00:58:12.113Z,19.70
2022-08-05T01:00:40.979Z,19.90
2022-08-05T01:03:10.421Z,20.00
2022-08-05T01:05:49.386Z,20.10
2022-08-05T01:08:42.110Z,20.20
2022-08-05T01:11:14.301Z,20.20
2022-08-05T01:14:17.976Z,20.20
2022-08-05T01:17:03.287Z,20.10
2022-08-05T01:20:00.674Z,20.30
2022-08-05T01:22:43.186Z,20.40
2022-08-05T01:25:53.408Z,20.40
2022-08-05T01:28:26.646Z,20.50
2022-08-05T01:31:12.705Z,20.50
2022-08-05T01:33:49.133Z,20.50
2022-08-05T01:36:21.051Z,20.50
2022-08-05T01:38:56.693Z,20.50
2022-08-05T01:41:30.023Z,20.40
2022-08-05T01:44:01.009Z,20.40
2022-08-05T01:46:42.352Z,20.50
2022-08-05T01:49:24.324Z,20.30
2022-08-05T01:51:58.262Z,20.30
2022-08-05T01:54:46.282Z,20.20
2022-08-05T01:58:12.249Z,20.10
2022-08-05T02:00:05.680Z,20.20
2022-08-05T02:02:46.412Z,20.20
2022-08-05T02:05:24.814Z,20.20
2022-08-05T02:08:01.019Z,20.30
2022-08-05T02:10:35.286Z,20.40
2022-08-05T02:13:27.926Z,20.40
2022-08-05T02:16:16.386Z,20.50
2022-08-05T02:18:50.469Z,20.60
2022-08-05T02:21:21.950Z,20.60
2022-08-05T02:23:53.443Z,20.60
2022-08-05T02:26:26.511Z,20.70
2022-08-05T02:28:56.156Z,20.70
2022-08-05T02:31:34.893Z,20.80
2022-08-05T02:34:06.711Z,20.80
2022-08-05T02:36:41.723Z,20.80
2022-08-05T02:39:12.651Z,20.80
2022-08-05T02:41:57.549Z,20.80
2022-08-05T02:44:30.085Z,20.80
2022-08-05T02:47:00.746Z,20.80
2022-08-05T02:49:35.945Z,20.80
2022-08-05T02:52:09.387Z,20.80
2022-08-05T02:54:41.276Z,20.80
2022-08-05T02:58:11.989Z,20.80
2022-08-05T03:00:01.233Z,20.80
2022-08-05T03:02:36.709Z,20.70
2022-08-05T03:05:05.080Z,20.60
2022-08-05T03:08:00.102Z,20.50
2022-08-05T03:10:22.073Z,20.50
2022-08-05T03:12:53.503Z,20.50
2022-08-05T03:15:21.343Z,20.50
2022-08-05T03:17:54.180Z,20.50
2022-08-05T03:20:24.292Z,20.50
2022-08-05T03:22:53.073Z,20.50
2022-08-05T03:25:33.175Z,20.50
2022-08-05T03:28:11.619Z,20.60
2022-08-05T03:30:42.420Z,20.60
2022-08-05T03:33:09.761Z,20.60
2022-08-05T03:35:41.188Z,20.70
2022-08-05T03:38:12.186Z,20.60
2022-08-05T03:40:48.613Z,20.70
2022-08-05T03:44:09.663Z,20.70
2022-08-05T03:46:04.982Z,20.70
2022-08-05T03:48:35.625Z,20.80
2022-08-05T03:52:38.506Z,20.70
2022-08-05T03:56:01.577Z,20.60
2022-08-05T03:57:16.122Z,20.60
2022-08-05T03:59:54.698Z,20.60
2022-08-05T04:02:37.396Z,20.40
2022-08-05T04:05:09.724Z,20.40
2022-08-05T04:07:53.047Z,20.30
2022-08-05T04:10:27.960Z,20.40
2022-08-05T04:12:58.988Z,20.30
2022-08-05T04:15:27.923Z,20.20
2022-08-05T04:18:03.785Z,20.20
2022-08-05T04:20:34.103Z,20.20
2022-08-05T04:23:01.099Z,20.30
2022-08-05T04:25:57.404Z,20.30
2022-08-05T04:28:15.206Z,20.30
2022-08-05T04:30:44.771Z,20.20
2022-08-05T04:33:12.897Z,20.20
2022-08-05T04:36:10.689Z,20.20
2022-08-05T04:38:39.506Z,20.20
2022-08-05T04:41:09.363Z,20.10
2022-08-05T04:43:40.564Z,20.10
2022-08-05T04:46:13.726Z,20.10
2022-08-05T04:48:54.935Z,20.10
2022-08-05T04:51:21.814Z,20.10
2022-08-05T04:53:50.009Z,20.20
2022-08-05T04:56:33.593Z,20.20
2022-08-05T04:59:21.964Z,20.20
2022-08-05T05:02:07.058Z,20.20
2022-08-05T05:04:38.114Z,20.10
2022-08-05T05:07:05.436Z,20.10
2022-08-05T05:09:37.240Z,20.20
2022-08-05T05:12:06.311Z,20.20
2022-08-05T05:14:36.299Z,20.20
2022-08-05T05:17:03.740Z,20.10
2022-08-05T05:19:36.891Z,19.90
2022-08-05T05:22:24.320Z,19.80
2022-08-05T05:24:59.909Z,19.80
2022-08-05T05:27:45.867Z,19.80
2022-08-05T05:30:30.914Z,19.80
2022-08-05T05:33:08.871Z,19.80
2022-08-05T05:35:48.121Z,19.70
2022-08-05T05:38:26.875Z,19.70
2022-08-05T05:40:57.779Z,19.60
2022-08-05T05:43:54.266Z,19.60
2022-08-05T05:46:16.013Z,19.60
2022-08-05T05:48:46.034Z,19.60
2022-08-05T05:51:22.562Z,19.60
2022-08-05T05:53:57.977Z,19.60
2022-08-05T05:56:32.937Z,19.50
2022-08-05T05:59:08.213Z,19.40
2022-08-05T06:01:57.400Z,19.50
2022-08-05T06:04:25.116Z,19.50
2022-08-05T06:06:52.131Z,19.60
2022-08-05T06:09:25.944Z,19.60
2022-08-05T06:12:06.377Z,19.70
2022-08-05T06:14:36.506Z,19.90
2022-08-05T06:17:22.672Z,19.90
2022-08-05T06:19:56.896Z,20.00
2022-08-05T06:22:28.003Z,20.00
2022-08-05T06:24:55.005Z,20.00
2022-08-05T06:28:12.352Z,20.00
2022-08-05T06:30:17.809Z,19.80
2022-08-05T06:32:48.299Z,19.70
2022-08-05T06:36:02.870Z,19.60
2022-08-05T06:38:11.345Z,19.70
2022-08-05T06:40:42.103Z,19.80
2022-08-05T06:43:57.713Z,19.90
2022-08-05T06:46:07.025Z,20.00
2022-08-05T06:48:54.558Z,20.10
2022-08-05T06:51:29.507Z,20.30
2022-08-05T06:54:04.141Z,20.40
2022-08-05T06:56:33.890Z,20.50
2022-08-05T06:59:01.836Z,20.50
2022-08-05T07:01:32.465Z,20.60
2022-08-05T07:04:02.494Z,20.70
2022-08-05T07:06:30.138Z,20.70
2022-08-05T07:08:59.110Z,20.70
2022-08-05T07:11:28.769Z,20.80
2022-08-05T07:14:20.586Z,20.80
2022-08-05T07:18:00.226Z,20.70
2022-08-05T07:22:35.832Z,20.70
2022-08-05T07:25:21.828Z,20.90
2022-08-05T07:27:58.635Z,21.00
2022-08-05T07:30:39.691Z,21.10
2022-08-05T07:33:10.639Z,21.20
2022-08-05T07:36:03.319Z,21.30
2022-08-05T07:38:34.078Z,21.40
2022-08-05T07:41:35.007Z,21.40
2022-08-05T07:43:56.635Z,21.40
2022-08-05T07:46:26.214Z,21.40
2022-08-05T07:49:02.216Z,21.40
2022-08-05T07:51:40.333Z,21.40
2022-08-05T07:54:16.190Z,21.50
2022-08-05T07:57:02.007Z,21.40
2022-08-05T07:59:40.527Z,21.30
2022-08-05T08:02:15.634Z,21.30
2022-08-05T08:04:45.991Z,21.30
2022-08-05T08:07:13.721Z,21.40
2022-08-05T08:09:40.822Z,21.30
2022-08-05T08:12:35.674Z,21.20
2022-08-05T08:14:55.073Z,21.20
2022-08-05T08:17:22.245Z,21.20
2022-08-05T08:20:22.498Z,21.30
2022-08-05T08:22:37.867Z,21.50
2022-08-05T08:25:16.155Z,21.60
2022-08-05T08:27:47.460Z,21.80
2022-08-05T08:30:29.879Z,21.90
2022-08-05T08:33:08.570Z,21.90
2022-08-05T08:35:41.431Z,22.10
2022-08-05T08:38:35.273Z,22.00
2022-08-05T08:41:10.733Z,21.90
2022-08-05T08:45:17.167Z,21.80
2022-08-05T08:46:31.179Z,21.60
2022-08-05T08:49:17.471Z,21.30
2022-08-05T08:52:03.433Z,21.10
2022-08-05T08:54:36.403Z,21.10
2022-08-05T08:57:11.434Z,21.40
2022-08-05T08:59:41.922Z,21.70
2022-08-05T09:02:16.772Z,22.10
2022-08-05T09:04:58.386Z,22.80
2022-08-05T09:07:39.870Z,23.00
2022-08-05T09:10:20.373Z,22.70
2022-08-05T09:12:50.904Z,22.50
2022-08-05T09:15:20.381Z,22.30
2022-08-05T09:17:49.578Z,22.30
2022-08-05T09:20:21.059Z,22.50
2022-08-05T09:23:19.666Z,22.60
2022-08-05T09:26:06.442Z,22.80
2022-08-05T09:28:37.846Z,23.20
2022-08-05T09:31:43.534Z,23.40
2022-08-05T09:34:01.084Z,23.50
2022-08-05T09:36:55.251Z,23.80
2022-08-05T09:39:39.482Z,23.90
2022-08-05T09:42:23.271Z,23.80
2022-08-05T09:44:56.600Z,23.50
2022-08-05T09:47:48.019Z,23.30
2022-08-05T09:50:17.922Z,23.30
2022-08-05T09:52:59.375Z,23.30
2022-08-05T09:55:58.579Z,23.40
2022-08-05T09:58:15.630Z,23.60
2022-08-05T10:01:13.560Z,23.50
2022-08-05T10:04:02.164Z,23.50
2022-08-05T10:06:31.889Z,23.50
2022-08-05T10:09:25.167Z,23.20
2022-08-05T10:11:56.147Z,23.20
2022-08-05T10:14:32.220Z,23.20
2022-08-05T10:17:36.940Z,23.20
2022-08-05T10:20:09.942Z,23.10
2022-08-05T10:22:43.170Z,23.20
2022-08-05T10:25:19.156Z,23.50
2022-08-05T10:28:13.936Z,24.10
2022-08-05T10:31:20.213Z,24.60
2022-08-05T10:33:29.021Z,25.10
2022-08-05T10:35:59.898Z,25.30
2022-08-05T10:38:33.310Z,24.90
2022-08-05T10:41:13.855Z,24.70
2022-08-05T10:43:54.588Z,24.20
2022-08-05T10:46:24.054Z,24.00
2022-08-05T10:49:01.489Z,23.90
2022-08-05T10:51:48.655Z,23.70
2022-08-05T10:54:56.535Z,23.80
2022-08-05T10:57:31.843Z,24.00
2022-08-05T11:00:28.921Z,24.20
2022-08-05T11:03:24.501Z,24.40
2022-08-05T11:06:15.406Z,24.40
2022-08-05T11:09:16.582Z,24.10
2022-08-05T11:11:53.561Z,23.80
2022-08-05T11:15:11.844Z,23.40
2022-08-05T11:17:59.345Z,23.10
2022-08-05T11:20:48.403Z,22.80
2022-08-05T11:24:05.160Z,22.70
2022-08-05T11:26:32.238Z,22.50
2022-08-05T11:29:13.265Z,22.50
2022-08-05T11:31:58.457Z,22.50
2022-08-05T11:34:39.770Z,22.50
2022-08-05T11:38:29.277Z,22.30
2022-08-05T11:40:00.479Z,22.20
2022-08-05T11:42:40.192Z,21.90
2022-08-05T11:45:23.132Z,21.70
2022-08-05T11:47:55.416Z,21.60
2022-08-05T11:50:23.008Z,21.80
2022-08-05T11:52:55.709Z,22.10
2022-08-05T11:55:32.188Z,23.00
2022-08-05T11:58:09.202Z,24.20
2022-08-05T12:00:39.023Z,25.80
2022-08-05T12:03:28.726Z,26.10
2022-08-05T12:06:01.633Z,25.70
2022-08-05T12:08:31.735Z,25.20
2022-08-05T12:11:04.119Z,24.80
2022-08-05T12:13:48.821Z,24.70
2022-08-05T12:16:19.628Z,24.60
2022-08-05T12:18:52.220Z,24.90
2022-08-05T12:21:24.620Z,24.80
2022-08-05T12:24:06.401Z,24.30
2022-08-05T12:26:38.776Z,24.40
2022-08-05T12:29:15.956Z,24.30
2022-08-05T12:31:56.285Z,25.20
2022-08-05T12:34:28.555Z,25.80
2022-08-05T12:37:00.787Z,25.80
2022-08-05T12:39:34.615Z,26.30
2022-08-05T12:42:18.919Z,26.20
2022-08-05T12:44:47.561Z,25.40
2022-08-05T12:47:26.765Z,25.70
2022-08-05T12:50:04.561Z,25.10
2022-08-05T12:52:41.611Z,24.70
2022-08-05T12:55:25.541Z,24.60
2022-08-05T12:58:49.460Z,25.00
2022-08-05T13:02:02.433Z,25.60
2022-08-05T13:03:41.842Z,25.60
2022-08-05T13:06:17.246Z,24.70
2022-08-05T13:08:51.666Z,24.10
2022-08-05T13:12:01.121Z,24.00
2022-08-05T13:14:25.052Z,24.40
2022-08-05T13:17:07.224Z,24.90
2022-08-05T13:19:51.691Z,25.00
2022-08-05T13:22:27.960Z,25.10
2022-08-05T13:25:00.341Z,25.20
2022-08-05T13:27:39.697Z,25.20
2022-08-05T13:30:35.185Z,25.70
2022-08-05T13:33:01.616Z,25.90
2022-08-05T13:35:43.326Z,26.40
2022-08-05T13:38:28.489Z,26.60
2022-08-05T13:41:01.192Z,26.50
2022-08-05T13:43:43.557Z,26.40
2022-08-05T13:46:13.518Z,26.20
2022-08-05T13:48:58.485Z,26.10
2022-08-05T13:51:36.577Z,26.20
2022-08-05T13:54:12.519Z,26.10
2022-08-05T13:56:45.144Z,26.20
2022-08-05T13:59:19.301Z,26.10
2022-08-05T14:01:58.210Z,26.70
2022-08-05T14:04:51.613Z,27.00
2022-08-05T14:08:00.348Z,27.20
2022-08-05T14:10:28.452Z,27.10
2022-08-05T14:12:57.189Z,27.10
2022-08-05T14:16:05.914Z,27.30
2022-08-05T14:18:14.746Z,27.50
2022-08-05T14:20:47.955Z,27.50
2022-08-05T14:23:23.347Z,27.70
2022-08-05T14:25:58.014Z,28.10
2022-08-05T14:28:29.979Z,28.60
2022-08-05T14:30:58.144Z,29.80
2022-08-05T14:33:25.129Z,30.20
2022-08-05T14:35:54.266Z,30.10
2022-08-05T14:38:32.267Z,29.80
2022-08-05T14:41:06.206Z,29.40
2022-08-05T14:43:57.778Z,28.90
2022-08-05T14:46:28.083Z,28.50
2022-08-05T14:48:58.139Z,28.00
2022-08-05T14:51:26.508Z,27.60
2022-08-05T14:54:26.685Z,27.20
2022-08-05T14:56:46.934Z,26.80
2022-08-05T14:59:15.196Z,26.50
2022-08-05T15:01:48.947Z,26.30
2022-08-05T15:04:20.315Z,26.20
2022-08-05T15:06:49.244Z,26.10
2022-08-05T15:09:51.618Z,26.00
2022-08-05T15:12:26.893Z,25.90
2022-08-05T15:14:54.670Z,25.80
2022-08-05T15:17:47.781Z,25.80
2022-08-05T15:20:18.492Z,25.80
2022-08-05T15:22:46.787Z,25.80
2022-08-05T15:25:23.645Z,25.90
2022-08-05T15:28:08.834Z,25.80
2022-08-05T15:30:41.797Z,25.80
2022-08-05T15:33:10.717Z,25.90
2022-08-05T15:35:44.939Z,26.20
2022-08-05T15:38:33.752Z,26.30
2022-08-05T15:41:23.970Z,26.40
2022-08-05T15:43:47.492Z,26.70
2022-08-05T15:46:14.704Z,27.00
2022-08-05T15:48:51.950Z,27.20
2022-08-05T15:52:12.645Z,27.30
2022-08-05T15:54:16.098Z,27.40
2022-08-05T15:56:43.460Z,27.30
2022-08-05T15:59:22.255Z,27.30
2022-08-05T16:01:52.741Z,27.30
2022-08-05T16:04:25.507Z,27.40
2022-08-05T16:06:55.983Z,27.40
2022-08-05T16:09:25.016Z,27.30
2022-08-05T16:11:54.068Z,27.40
2022-08-05T16:14:22.412Z,27.50
2022-08-05T16:16:49.829Z,27.60
2022-08-05T16:19:25.287Z,27.60
2022-08-05T16:22:04.399Z,27.50
2022-08-05T16:24:41.922Z,27.50
2022-08-05T16:27:19.607Z,27.50
2022-08-05T16:30:08.379Z,27.40
2022-08-05T16:32:50.582Z,27.40
2022-08-05T16:35:17.552Z,27.30
2022-08-05T16:38:03.340Z,27.20
2022-08-05T16:40:32.320Z,27.10
2022-08-05T16:43:00.015Z,27.00
2022-08-05T16:46:04.415Z,26.90
2022-08-05T16:48:25.461Z,26.80
2022-08-05T16:51:00.018Z,26.60
2022-08-05T16:53:32.117Z,26.50
2022-08-05T16:55:59.708Z,26.50
2022-08-05T16:58:26.671Z,26.40
2022-08-05T17:00:53.670Z,26.30
2022-08-05T17:03:21.921Z,26.30
2022-08-05T17:05:54.282Z,26.30
2022-08-05T17:08:35.936Z,26.20
2022-08-05T17:11:16.909Z,26.30
2022-08-05T17:13:45.214Z,26.30
2022-08-05T17:16:33.037Z,26.30
2022-08-05T17:19:00.145Z,26.20
2022-08-05T17:21:35.410Z,26.20
2022-08-05T17:24:19.648Z,26.20
2022-08-05T17:26:56.470Z,25.90
2022-08-05T17:29:33.428Z,26.00
2022-08-05T17:32:06.793Z,25.90
2022-08-05T17:34:35.470Z,25.90
2022-08-05T17:37:02.512Z,25.70
2022-08-05T17:39:34.357Z,25.70
2022-08-05T17:42:18.901Z,25.70
2022-08-05T17:44:50.347Z,25.80
2022-08-05T17:47:22.021Z,25.80
2022-08-05T17:50:00.429Z,25.90
2022-08-05T17:52:35.100Z,25.90
2022-08-05T17:55:21.717Z,26.00
2022-08-05T17:57:50.345Z,26.00
2022-08-05T18:00:18.477Z,25.90
2022-08-05T18:02:47.287Z,25.80
2022-08-05T18:05:16.798Z,25.80
2022-08-05T18:07:44.703Z,25.70
2022-08-05T18:10:20.443Z,25.60
2022-08-05T18:12:49.434Z,25.50
2022-08-05T18:15:16.497Z,25.30
2022-08-05T18:18:00.794Z,25.20
2022-08-05T18:20:31.561Z,25.00
2022-08-05T18:23:00.543Z,24.90
2022-08-05T18:25:35.968Z,24.80
2022-08-05T18:28:05.162Z,24.60
2022-08-05T18:30:33.244Z,24.60
2022-08-05T18:33:01.306Z,24.50
2022-08-05T18:36:00.912Z,24.40
2022-08-05T18:38:19.040Z,24.30
2022-08-05T18:41:58.404Z,24.10
2022-08-05T18:43:43.063Z,24.00
2022-08-05T18:46:20.306Z,23.80
2022-08-05T18:48:52.144Z,23.70
2022-08-05T18:52:06.651Z,23.50
2022-08-05T18:54:31.303Z,23.40
2022-08-05T18:57:00.950Z,23.30
2022-08-05T18:59:42.966Z,23.20
2022-08-05T19:02:28.114Z,23.10
2022-08-05T19:06:13.496Z,23.00
2022-08-05T19:07:53.167Z,22.80
2022-08-05T19:10:28.252Z,22.70
2022-08-05T19:12:56.693Z,22.60
2022-08-05T19:15:57.083Z,22.50
2022-08-05T19:18:13.648Z,22.40
2022-08-05T19:20:53.749Z,22.40
2022-08-05T19:24:03.688Z,22.30
2022-08-05T19:26:09.190Z,22.30
2022-08-05T19:28:42.171Z,22.20
2022-08-05T19:31:13.575Z,22.00
2022-08-05T19:33:48.710Z,22.00
2022-08-05T19:36:25.654Z,21.90
2022-08-05T19:38:55.172Z,21.80
2022-08-05T19:42:05.428Z,21.80
2022-08-05T19:44:14.562Z,21.70
2022-08-05T19:46:43.720Z,21.60
2022-08-05T19:49:12.511Z,21.50
2022-08-05T19:52:04.681Z,21.50
2022-08-05T19:54:32.916Z,21.40
2022-08-05T19:57:06.547Z,21.30
2022-08-05T19:59:54.669Z,21.30
2022-08-05T20:02:26.313Z,21.20
2022-08-05T20:04:55.450Z,21.20
2022-08-05T20:07:45.964Z,21.10
2022-08-05T20:10:14.769Z,21.10
2022-08-05T20:12:46.028Z,21.00
2022-08-05T20:15:48.561Z,21.00
2022-08-05T20:18:10.287Z,20.90
2022-08-05T20:20:51.461Z,20.90
2022-08-05T20:23:22.359Z,20.80
2022-08-05T20:25:49.278Z,20.80
2022-08-05T20:28:19.982Z,20.70
2022-08-05T20:30:47.909Z,20.70
2022-08-05T20:33:16.681Z,20.70
2022-08-05T20:35:45.565Z,20.70
2022-08-05T20:38:20.102Z,20.70
2022-08-05T20:40:53.649Z,20.60
2022-08-05T20:43:57.469Z,20.60
2022-08-05T20:46:10.283Z,20.60
2022-08-05T20:48:45.260Z,20.50
2022-08-05T20:51:17.869Z,20.50
2022-08-05T20:53:56.715Z,20.50
2022-08-05T20:56:28.931Z,20.40
2022-08-05T20:58:59.995Z,20.40
2022-08-05T21:01:39.041Z,20.40
2022-08-05T21:04:10.589Z,20.40
2022-08-05T21:06:45.722Z,20.30
2022-08-05T21:09:16.811Z,20.30
2022-08-05T21:12:09.457Z,20.30
2022-08-05T21:14:32.027Z,20.30
2022-08-05T21:17:05.246Z,20.30
2022-08-05T21:19:47.085Z,20.20
2022-08-05T21:22:23.415Z,20.20
2022-08-05T21:24:52.427Z,20.20
2022-08-05T21:27:25.124Z,20.20
2022-08-05T21:29:57.073Z,20.10
2022-08-05T21:32:26.691Z,20.10
2022-08-05T21:35:08.851Z,20.10
2022-08-05T21:37:47.261Z,20.10
2022-08-05T21:40:21.850Z,20.10
2022-08-05T21:42:49.019Z,20.00
2022-08-05T21:45:24.422Z,20.00
2022-08-05T21:47:56.384Z,20.00
2022-08-05T21:50:26.342Z,20.00
2022-08-05T21:52:53.813Z,20.00
2022-08-05T21:55:42.782Z,20.00
2022-08-05T21:58:13.030Z,19.90
2022-08-05T22:00:40.271Z,20.00
2022-08-05T22:03:09.907Z,19.90
2022-08-05T22:05:48.830Z,19.90
2022-08-05T22:08:22.193Z,19.90
2022-08-05T22:10:51.731Z,19.80
2022-08-05T22:14:19.710Z,19.80
2022-08-05T22:16:26.076Z,19.70
2022-08-05T22:18:54.114Z,19.60
2022-08-05T22:21:25.745Z,19.60
2022-08-05T22:24:13.161Z,19.50
2022-08-05T22:27:17.379Z,19.50
2022-08-05T22:29:44.559Z,19.30
2022-08-05T22:32:12.877Z,19.30
2022-08-05T22:34:45.821Z,19.20
2022-08-05T22:37:12.873Z,19.20
2022-08-05T22:39:39.891Z,19.10
2022-08-05T22:42:12.676Z,19.10
2022-08-05T22:44:53.662Z,19.00
2022-08-05T22:47:29.075Z,19.00
2022-08-05T22:50:20.330Z,18.90
2022-08-05T22:52:44.116Z,18.90
2022-08-05T22:55:18.886Z,18.80
2022-08-05T22:57:52.367Z,18.80
2022-08-05T23:00:21.840Z,18.80
2022-08-05T23:02:49.962Z,18.70
2022-08-05T23:05:18.343Z,18.70
2022-08-05T23:07:49.545Z,18.60
2022-08-05T23:10:20.075Z,18.60
2022-08-05T23:12:51.653Z,18.50
2022-08-05T23:15:26.921Z,18.50
2022-08-05T23:18:00.970Z,18.50
2022-08-05T23:20:33.564Z,18.50
2022-08-05T23:23:05.828Z,18.50
2022-08-05T23:25:52.477Z,18.40
2022-08-05T23:28:23.043Z,18.40
2022-08-05T23:30:53.768Z,18.30
2022-08-05T23:34:03.353Z,18.30
2022-08-05T23:36:10.543Z,18.20
2022-08-05T23:38:38.153Z,18.20
2022-08-05T23:41:05.237Z,18.10
2022-08-05T23:43:37.298Z,18.10
2022-08-05T23:46:21.776Z,18.00
2022-08-05T23:49:00.608Z,18.00
2022-08-05T23:51:52.692Z,18.00
2022-08-05T23:54:36.445Z,18.00
2022-08-05T23:57:06.193Z,17.90
